CDC8987 ZSHC-ZBYN
Flight info
| Callsign | CDC8987 |
|---|---|
| Flight time | 2h 7m |
| Altitude | 34099 |
| Route | NIVIK9D NIVIK W135 DOGVI W545 VEMEX W163 HFE B208 ANPIG ANPIG8Z |
| Aircraft | A21N/M-SDE3FGHIRWY/LB1 |
Departure
| Time | 2026-04-22 10:12 |
|---|---|
| Airport | Hangzhou Xiaoshan International Airport (ZSHC) |
Arrival
| Time | 2026-04-22 12:20 |
|---|---|
| Airport | Taiyuan Wusu International Airport (ZBYN) |
| Time | Latitude | Longitude | Altitude | Speed | Heading |
|---|---|---|---|---|---|
| 2026-04-22 09:43 | 30.24170 | 120.42979 | 29 ft | 0 kts | 63° |
| 2026-04-22 10:01 | 30.24164 | 120.42965 | 29 ft | 2 kts | 63° |
| 2026-04-22 10:01 | 30.24157 | 120.42950 | 29 ft | 2 kts | 63° |
| 2026-04-22 10:02 | 30.24153 | 120.42940 | 29 ft | 2 kts | 62° |
| 2026-04-22 10:02 | 30.24142 | 120.42930 | 29 ft | 2 kts | 12° |
| 2026-04-22 10:02 | 30.24129 | 120.42930 | 29 ft | 0 kts | 337° |
| 2026-04-22 10:02 | 30.24124 | 120.42934 | 29 ft | 1 kts | 330° |
| 2026-04-22 10:03 | 30.24122 | 120.42934 | 29 ft | 0 kts | 332° |
| 2026-04-22 10:05 | 30.24123 | 120.42934 | 29 ft | 1 kts | 332° |
| 2026-04-22 10:05 | 30.24154 | 120.42915 | 29 ft | 8 kts | 333° |
| 2026-04-22 10:05 | 30.24229 | 120.42873 | 29 ft | 14 kts | 334° |
| 2026-04-22 10:06 | 30.24318 | 120.42820 | 29 ft | 14 kts | 332° |
| 2026-04-22 10:06 | 30.24375 | 120.42764 | 29 ft | 10 kts | 282° |
| 2026-04-22 10:06 | 30.24349 | 120.42683 | 29 ft | 11 kts | 243° |
| 2026-04-22 10:06 | 30.24311 | 120.42597 | 29 ft | 12 kts | 243° |
| 2026-04-22 10:07 | 30.24270 | 120.42505 | 29 ft | 13 kts | 243° |
| 2026-04-22 10:07 | 30.24228 | 120.42409 | 29 ft | 13 kts | 243° |
| 2026-04-22 10:07 | 30.24183 | 120.42307 | 29 ft | 14 kts | 243° |
| 2026-04-22 10:07 | 30.24137 | 120.42203 | 29 ft | 14 kts | 243° |
| 2026-04-22 10:08 | 30.24167 | 120.42110 | 29 ft | 12 kts | 308° |
| 2026-04-22 10:08 | 30.24152 | 120.42012 | 29 ft | 13 kts | 242° |
| 2026-04-22 10:08 | 30.24108 | 120.41914 | 29 ft | 14 kts | 242° |
| 2026-04-22 10:08 | 30.24062 | 120.41810 | 29 ft | 14 kts | 243° |
| 2026-04-22 10:09 | 30.24014 | 120.41702 | 29 ft | 15 kts | 243° |
| 2026-04-22 10:09 | 30.23965 | 120.41592 | 29 ft | 15 kts | 243° |
| 2026-04-22 10:09 | 30.23916 | 120.41479 | 29 ft | 16 kts | 243° |
| 2026-04-22 10:09 | 30.23864 | 120.41362 | 29 ft | 16 kts | 242° |
| 2026-04-22 10:10 | 30.23812 | 120.41246 | 29 ft | 16 kts | 244° |
| 2026-04-22 10:10 | 30.23760 | 120.41126 | 29 ft | 16 kts | 243° |
| 2026-04-22 10:10 | 30.23706 | 120.41007 | 29 ft | 16 kts | 243° |
| 2026-04-22 10:10 | 30.23717 | 120.40905 | 29 ft | 14 kts | 329° |
| 2026-04-22 10:11 | 30.23805 | 120.40854 | 29 ft | 12 kts | 347° |
| 2026-04-22 10:11 | 30.23833 | 120.40865 | 29 ft | 0 kts | 69° |
| 2026-04-22 10:11 | 30.23834 | 120.40865 | 29 ft | 0 kts | 64° |
| 2026-04-22 10:11 | 30.23834 | 120.40866 | 29 ft | 0 kts | 64° |
| 2026-04-22 10:12 | 30.23893 | 120.40997 | 29 ft | 54 kts | 64° |
| 2026-04-22 10:12 | 30.24191 | 120.41666 | 29 ft | 129 kts | 63° |
| 2026-04-22 10:12 | 30.24689 | 120.42773 | 221 ft | 170 kts | 64° |
| 2026-04-22 10:12 | 30.25204 | 120.43961 | 1084 ft | 165 kts | 66° |
| 2026-04-22 10:13 | 30.25707 | 120.45113 | 1964 ft | 163 kts | 67° |
| 2026-04-22 10:13 | 30.26242 | 120.46322 | 2600 ft | 177 kts | 68° |
| 2026-04-22 10:13 | 30.26824 | 120.47639 | 3177 ft | 194 kts | 69° |
| 2026-04-22 10:13 | 30.27460 | 120.49082 | 3763 ft | 210 kts | 69° |
| 2026-04-22 10:14 | 30.28122 | 120.50582 | 4494 ft | 218 kts | 68° |
| 2026-04-22 10:14 | 30.28823 | 120.52168 | 5297 ft | 223 kts | 68° |
| 2026-04-22 10:14 | 30.29527 | 120.53756 | 6022 ft | 229 kts | 68° |
| 2026-04-22 10:14 | 30.30262 | 120.55416 | 6749 ft | 235 kts | 68° |
| 2026-04-22 10:15 | 30.31007 | 120.57105 | 7405 ft | 240 kts | 68° |
| 2026-04-22 10:15 | 30.31769 | 120.58828 | 7785 ft | 244 kts | 68° |
| 2026-04-22 10:15 | 30.32633 | 120.60512 | 7867 ft | 250 kts | 53° |
| 2026-04-22 10:15 | 30.34087 | 120.61656 | 7865 ft | 255 kts | 21° |
| 2026-04-22 10:16 | 30.35825 | 120.61868 | 7873 ft | 255 kts | 351° |
| 2026-04-22 10:16 | 30.37463 | 120.61123 | 7869 ft | 250 kts | 320° |
| 2026-04-22 10:16 | 30.38572 | 120.59676 | 7864 ft | 241 kts | 292° |
| 2026-04-22 10:16 | 30.39017 | 120.57862 | 7873 ft | 231 kts | 267° |
| 2026-04-22 10:17 | 30.38776 | 120.56060 | 7863 ft | 222 kts | 245° |
| 2026-04-22 10:17 | 30.38127 | 120.54475 | 7881 ft | 219 kts | 236° |
| 2026-04-22 10:17 | 30.37380 | 120.52930 | 7887 ft | 218 kts | 236° |
| 2026-04-22 10:17 | 30.36645 | 120.51395 | 7880 ft | 218 kts | 236° |
| 2026-04-22 10:18 | 30.35925 | 120.49847 | 7879 ft | 219 kts | 237° |
| 2026-04-22 10:18 | 30.35216 | 120.48289 | 7866 ft | 218 kts | 237° |
| 2026-04-22 10:18 | 30.34519 | 120.46737 | 7876 ft | 222 kts | 238° |
| 2026-04-22 10:18 | 30.33767 | 120.45058 | 7808 ft | 241 kts | 238° |
| 2026-04-22 10:19 | 30.32993 | 120.43314 | 7843 ft | 245 kts | 238° |
| 2026-04-22 10:19 | 30.32228 | 120.41579 | 7857 ft | 245 kts | 238° |
| 2026-04-22 10:19 | 30.31444 | 120.39806 | 7862 ft | 245 kts | 238° |
| 2026-04-22 10:19 | 30.30662 | 120.38040 | 7868 ft | 246 kts | 238° |
| 2026-04-22 10:20 | 30.29883 | 120.36283 | 7869 ft | 246 kts | 238° |
| 2026-04-22 10:20 | 30.29104 | 120.34526 | 7868 ft | 246 kts | 238° |
| 2026-04-22 10:20 | 30.28334 | 120.32790 | 7867 ft | 245 kts | 238° |
| 2026-04-22 10:20 | 30.27554 | 120.31034 | 7866 ft | 244 kts | 238° |
| 2026-04-22 10:21 | 30.26924 | 120.29217 | 7847 ft | 250 kts | 256° |
| 2026-04-22 10:21 | 30.27052 | 120.27193 | 7858 ft | 262 kts | 284° |
| 2026-04-22 10:21 | 30.28069 | 120.25323 | 7873 ft | 290 kts | 313° |
| 2026-04-22 10:21 | 30.29802 | 120.24081 | 7876 ft | 301 kts | 331° |
| 2026-04-22 10:22 | 30.31716 | 120.23020 | 7869 ft | 301 kts | 331° |
| 2026-04-22 10:22 | 30.33612 | 120.22024 | 7857 ft | 302 kts | 334° |
| 2026-04-22 10:22 | 30.35553 | 120.21067 | 7865 ft | 302 kts | 334° |
| 2026-04-22 10:22 | 30.37487 | 120.20116 | 7860 ft | 303 kts | 334° |
| 2026-04-22 10:23 | 30.39436 | 120.19150 | 7857 ft | 304 kts | 334° |
| 2026-04-22 10:23 | 30.41390 | 120.18174 | 7855 ft | 303 kts | 334° |
| 2026-04-22 10:23 | 30.43333 | 120.17200 | 7850 ft | 304 kts | 333° |
| 2026-04-22 10:23 | 30.45266 | 120.16229 | 7855 ft | 304 kts | 334° |
| 2026-04-22 10:24 | 30.47206 | 120.15239 | 7851 ft | 303 kts | 331° |
| 2026-04-22 10:24 | 30.49044 | 120.14072 | 7857 ft | 303 kts | 324° |
| 2026-04-22 10:24 | 30.50803 | 120.12664 | 8225 ft | 309 kts | 320° |
| 2026-04-22 10:24 | 30.52532 | 120.11201 | 9240 ft | 308 kts | 319° |
| 2026-04-22 10:25 | 30.54227 | 120.09757 | 10249 ft | 306 kts | 318° |
| 2026-04-22 10:25 | 30.55964 | 120.08272 | 10943 ft | 316 kts | 318° |
| 2026-04-22 10:25 | 30.57783 | 120.06715 | 11393 ft | 334 kts | 319° |
| 2026-04-22 10:25 | 30.59709 | 120.05074 | 11794 ft | 352 kts | 319° |
| 2026-04-22 10:26 | 30.61707 | 120.03376 | 12152 ft | 369 kts | 319° |
| 2026-04-22 10:26 | 30.63860 | 120.01549 | 12461 ft | 387 kts | 319° |
| 2026-04-22 10:26 | 30.66060 | 119.99684 | 12749 ft | 403 kts | 319° |
| 2026-04-22 10:26 | 30.68374 | 119.97726 | 13244 ft | 411 kts | 319° |
| 2026-04-22 10:27 | 30.70657 | 119.95792 | 13946 ft | 412 kts | 320° |
| 2026-04-22 10:27 | 30.72994 | 119.93810 | 14624 ft | 414 kts | 320° |
| 2026-04-22 10:27 | 30.75298 | 119.91849 | 15180 ft | 418 kts | 320° |
| 2026-04-22 10:27 | 30.77669 | 119.89829 | 15739 ft | 421 kts | 320° |
| 2026-04-22 10:28 | 30.80043 | 119.87798 | 16258 ft | 425 kts | 320° |
| 2026-04-22 10:28 | 30.82413 | 119.85767 | 16756 ft | 428 kts | 320° |
| 2026-04-22 10:28 | 30.84803 | 119.83714 | 17279 ft | 431 kts | 321° |
| 2026-04-22 10:28 | 30.87220 | 119.81639 | 17758 ft | 434 kts | 321° |
| 2026-04-22 10:29 | 30.89676 | 119.79531 | 18228 ft | 437 kts | 321° |
| 2026-04-22 10:29 | 30.92104 | 119.77447 | 18706 ft | 439 kts | 321° |
| 2026-04-22 10:29 | 30.94574 | 119.75325 | 19166 ft | 442 kts | 320° |
| 2026-04-22 10:29 | 30.97058 | 119.73184 | 19605 ft | 445 kts | 320° |
| 2026-04-22 10:30 | 30.99553 | 119.71034 | 20053 ft | 447 kts | 320° |
| 2026-04-22 10:30 | 31.02035 | 119.68892 | 20475 ft | 449 kts | 320° |
| 2026-04-22 10:30 | 31.04573 | 119.66702 | 20897 ft | 451 kts | 320° |
| 2026-04-22 10:30 | 31.07071 | 119.64542 | 21292 ft | 453 kts | 320° |
| 2026-04-22 10:31 | 31.09614 | 119.62341 | 21693 ft | 455 kts | 320° |
| 2026-04-22 10:31 | 31.12161 | 119.60136 | 22067 ft | 458 kts | 320° |
| 2026-04-22 10:31 | 31.14713 | 119.57938 | 22453 ft | 459 kts | 319° |
| 2026-04-22 10:31 | 31.17294 | 119.55690 | 22806 ft | 461 kts | 319° |
| 2026-04-22 10:32 | 31.19854 | 119.53451 | 23144 ft | 464 kts | 319° |
| 2026-04-22 10:32 | 31.22468 | 119.51177 | 23509 ft | 466 kts | 320° |
| 2026-04-22 10:32 | 31.25056 | 119.48933 | 23967 ft | 466 kts | 319° |
| 2026-04-22 10:32 | 31.27655 | 119.46683 | 24531 ft | 464 kts | 320° |
| 2026-04-22 10:33 | 31.30234 | 119.44446 | 25075 ft | 462 kts | 320° |
| 2026-04-22 10:33 | 31.32775 | 119.42240 | 25588 ft | 461 kts | 320° |
| 2026-04-22 10:33 | 31.35360 | 119.39991 | 26101 ft | 460 kts | 320° |
| 2026-04-22 10:33 | 31.37900 | 119.37781 | 26633 ft | 458 kts | 320° |
| 2026-04-22 10:34 | 31.40455 | 119.35555 | 27135 ft | 457 kts | 320° |
| 2026-04-22 10:34 | 31.43011 | 119.33326 | 27629 ft | 456 kts | 319° |
| 2026-04-22 10:34 | 31.45557 | 119.31100 | 28120 ft | 456 kts | 319° |
| 2026-04-22 10:34 | 31.48080 | 119.28899 | 28584 ft | 455 kts | 319° |
| 2026-04-22 10:35 | 31.50607 | 119.26685 | 29046 ft | 455 kts | 319° |
| 2026-04-22 10:35 | 31.53127 | 119.24480 | 29547 ft | 453 kts | 319° |
| 2026-04-22 10:35 | 31.55638 | 119.22275 | 30033 ft | 451 kts | 319° |
| 2026-04-22 10:35 | 31.58139 | 119.20070 | 30524 ft | 449 kts | 319° |
| 2026-04-22 10:36 | 31.60625 | 119.17864 | 31019 ft | 447 kts | 319° |
| 2026-04-22 10:36 | 31.63082 | 119.15680 | 31488 ft | 445 kts | 318° |
| 2026-04-22 10:36 | 31.65484 | 119.13397 | 31918 ft | 442 kts | 315° |
| 2026-04-22 10:36 | 31.67796 | 119.11045 | 32089 ft | 441 kts | 315° |
| 2026-04-22 10:37 | 31.74701 | 119.03946 | 32092 ft | 438 kts | 314° |
| 2026-04-22 10:38 | 31.78801 | 118.98766 | 32094 ft | 434 kts | 304° |
| 2026-04-22 10:38 | 31.81999 | 118.92829 | 32095 ft | 429 kts | 292° |
| 2026-04-22 10:39 | 31.83772 | 118.86199 | 32096 ft | 426 kts | 278° |
| 2026-04-22 10:39 | 31.83978 | 118.79313 | 32096 ft | 424 kts | 265° |
| 2026-04-22 10:40 | 31.83382 | 118.72435 | 32090 ft | 424 kts | 264° |
| 2026-04-22 10:40 | 31.82755 | 118.65561 | 32083 ft | 423 kts | 264° |
| 2026-04-22 10:41 | 31.82131 | 118.58706 | 32077 ft | 423 kts | 264° |
| 2026-04-22 10:41 | 31.81504 | 118.51845 | 32077 ft | 423 kts | 264° |
| 2026-04-22 10:42 | 31.80878 | 118.45018 | 32075 ft | 422 kts | 264° |
| 2026-04-22 10:42 | 31.80245 | 118.38162 | 32061 ft | 422 kts | 264° |
| 2026-04-22 10:43 | 31.79635 | 118.31335 | 32058 ft | 423 kts | 265° |
| 2026-04-22 10:43 | 31.79394 | 118.24436 | 32064 ft | 421 kts | 268° |
| 2026-04-22 10:44 | 31.79259 | 118.17602 | 32058 ft | 421 kts | 269° |
| 2026-04-22 10:44 | 31.79123 | 118.10722 | 32054 ft | 421 kts | 268° |
| 2026-04-22 10:45 | 31.78998 | 118.03855 | 32047 ft | 421 kts | 269° |
| 2026-04-22 10:45 | 31.78893 | 117.97027 | 32050 ft | 419 kts | 269° |
| 2026-04-22 10:46 | 31.78776 | 117.90214 | 32050 ft | 420 kts | 269° |
| 2026-04-22 10:46 | 31.78657 | 117.83369 | 32051 ft | 420 kts | 269° |
| 2026-04-22 10:47 | 31.78533 | 117.76496 | 32050 ft | 421 kts | 269° |
| 2026-04-22 10:47 | 31.78403 | 117.69632 | 32052 ft | 421 kts | 269° |
| 2026-04-22 10:48 | 31.78276 | 117.62795 | 32048 ft | 420 kts | 269° |
| 2026-04-22 10:48 | 31.78145 | 117.55972 | 32050 ft | 420 kts | 269° |
| 2026-04-22 10:49 | 31.78009 | 117.49101 | 32050 ft | 420 kts | 269° |
| 2026-04-22 10:49 | 31.77871 | 117.42252 | 32047 ft | 420 kts | 270° |
| 2026-04-22 10:50 | 31.78413 | 117.35440 | 32052 ft | 422 kts | 281° |
| 2026-04-22 10:50 | 31.80148 | 117.28878 | 32053 ft | 424 kts | 291° |
| 2026-04-22 10:51 | 31.83018 | 117.22826 | 32053 ft | 426 kts | 302° |
| 2026-04-22 10:51 | 31.86733 | 117.17411 | 32055 ft | 428 kts | 307° |
| 2026-04-22 10:52 | 31.90582 | 117.12087 | 32061 ft | 429 kts | 307° |
| 2026-04-22 10:52 | 31.94443 | 117.06737 | 32061 ft | 429 kts | 307° |
| 2026-04-22 10:53 | 31.98320 | 117.01359 | 32065 ft | 430 kts | 307° |
| 2026-04-22 10:53 | 32.02190 | 116.95999 | 32068 ft | 428 kts | 307° |
| 2026-04-22 10:54 | 32.06023 | 116.90681 | 32066 ft | 430 kts | 307° |
| 2026-04-22 10:54 | 32.09913 | 116.85272 | 32066 ft | 429 kts | 307° |
| 2026-04-22 10:55 | 32.13755 | 116.79919 | 32066 ft | 428 kts | 307° |
| 2026-04-22 10:55 | 32.17610 | 116.74567 | 32058 ft | 429 kts | 307° |
| 2026-04-22 10:56 | 32.21384 | 116.69179 | 32054 ft | 427 kts | 305° |
| 2026-04-22 10:56 | 32.25090 | 116.63682 | 32051 ft | 427 kts | 305° |
| 2026-04-22 10:57 | 32.28789 | 116.58198 | 32051 ft | 427 kts | 305° |
| 2026-04-22 10:57 | 32.32470 | 116.52744 | 32050 ft | 426 kts | 305° |
| 2026-04-22 10:58 | 32.36173 | 116.47257 | 32054 ft | 426 kts | 305° |
| 2026-04-22 10:58 | 32.39940 | 116.41882 | 32056 ft | 428 kts | 306° |
| 2026-04-22 10:59 | 32.43763 | 116.36485 | 32056 ft | 428 kts | 307° |
| 2026-04-22 10:59 | 32.47569 | 116.31091 | 32058 ft | 426 kts | 306° |
| 2026-04-22 11:00 | 32.51355 | 116.25701 | 32059 ft | 426 kts | 306° |
| 2026-04-22 11:00 | 32.55116 | 116.20339 | 32064 ft | 426 kts | 306° |
| 2026-04-22 11:01 | 32.58910 | 116.14951 | 32062 ft | 426 kts | 306° |
| 2026-04-22 11:01 | 32.62720 | 116.09560 | 32062 ft | 426 kts | 306° |
| 2026-04-22 11:02 | 32.66504 | 116.04186 | 32062 ft | 424 kts | 306° |
| 2026-04-22 11:02 | 32.70284 | 115.98807 | 32068 ft | 425 kts | 306° |
| 2026-04-22 11:03 | 32.74068 | 115.93417 | 32069 ft | 425 kts | 306° |
| 2026-04-22 11:03 | 32.77834 | 115.88039 | 32071 ft | 425 kts | 306° |
| 2026-04-22 11:04 | 32.81617 | 115.82632 | 32074 ft | 425 kts | 306° |
| 2026-04-22 11:04 | 32.85376 | 115.77244 | 32076 ft | 425 kts | 306° |
| 2026-04-22 11:05 | 32.89163 | 115.71847 | 32079 ft | 424 kts | 307° |
| 2026-04-22 11:05 | 32.93039 | 115.66592 | 32079 ft | 424 kts | 307° |
| 2026-04-22 11:06 | 32.96925 | 115.61327 | 32081 ft | 424 kts | 307° |
| 2026-04-22 11:06 | 33.00824 | 115.56023 | 32083 ft | 423 kts | 307° |
| 2026-04-22 11:07 | 33.04690 | 115.50743 | 32081 ft | 424 kts | 307° |
| 2026-04-22 11:07 | 33.08563 | 115.45452 | 32080 ft | 424 kts | 307° |
| 2026-04-22 11:08 | 33.12423 | 115.40161 | 32083 ft | 423 kts | 307° |
| 2026-04-22 11:08 | 33.16262 | 115.34892 | 32085 ft | 424 kts | 306° |
| 2026-04-22 11:09 | 33.17437 | 115.33279 | 32043 ft | 425 kts | 307° |
| 2026-04-22 11:09 | 33.21128 | 115.28198 | 32053 ft | 428 kts | 307° |
| 2026-04-22 11:10 | 33.24373 | 115.23736 | 32054 ft | 429 kts | 307° |
| 2026-04-22 11:10 | 33.28190 | 115.18481 | 32126 ft | 430 kts | 306° |
| 2026-04-22 11:11 | 33.32077 | 115.13125 | 32169 ft | 429 kts | 305° |
| 2026-04-22 11:11 | 33.35969 | 115.07740 | 32133 ft | 427 kts | 305° |
| 2026-04-22 11:12 | 33.39845 | 115.02363 | 32123 ft | 427 kts | 305° |
| 2026-04-22 11:12 | 33.43722 | 114.96986 | 32120 ft | 427 kts | 305° |
| 2026-04-22 11:13 | 33.47593 | 114.91605 | 32118 ft | 427 kts | 304° |
| 2026-04-22 11:13 | 33.51457 | 114.86229 | 32123 ft | 428 kts | 304° |
| 2026-04-22 11:14 | 33.55329 | 114.80829 | 32132 ft | 427 kts | 305° |
| 2026-04-22 11:14 | 33.59186 | 114.75446 | 32139 ft | 428 kts | 305° |
| 2026-04-22 11:15 | 33.63074 | 114.70039 | 32140 ft | 428 kts | 306° |
| 2026-04-22 11:15 | 33.67220 | 114.64938 | 32139 ft | 431 kts | 311° |
| 2026-04-22 11:16 | 33.71836 | 114.60269 | 32141 ft | 435 kts | 315° |
| 2026-04-22 11:16 | 33.76603 | 114.55769 | 32140 ft | 436 kts | 316° |
| 2026-04-22 11:17 | 33.81353 | 114.51298 | 32140 ft | 437 kts | 315° |
| 2026-04-22 11:17 | 33.86133 | 114.46793 | 32139 ft | 438 kts | 315° |
| 2026-04-22 11:18 | 33.90935 | 114.42258 | 32143 ft | 443 kts | 316° |
| 2026-04-22 11:18 | 33.95809 | 114.37638 | 32141 ft | 449 kts | 315° |
| 2026-04-22 11:19 | 34.00730 | 114.32974 | 32137 ft | 449 kts | 315° |
| 2026-04-22 11:19 | 34.05619 | 114.28339 | 32137 ft | 447 kts | 315° |
| 2026-04-22 11:20 | 34.10470 | 114.23723 | 32133 ft | 446 kts | 314° |
| 2026-04-22 11:20 | 34.15344 | 114.19076 | 32130 ft | 444 kts | 315° |
| 2026-04-22 11:21 | 34.20174 | 114.14465 | 32124 ft | 446 kts | 314° |
| 2026-04-22 11:21 | 34.25031 | 114.09824 | 32119 ft | 444 kts | 314° |
| 2026-04-22 11:22 | 34.29852 | 114.05208 | 32116 ft | 443 kts | 314° |
| 2026-04-22 11:22 | 34.34654 | 114.00600 | 32121 ft | 441 kts | 314° |
| 2026-04-22 11:23 | 34.39467 | 113.95969 | 32119 ft | 442 kts | 314° |
| 2026-04-22 11:23 | 34.44273 | 113.91375 | 32123 ft | 441 kts | 315° |
| 2026-04-22 11:24 | 34.49379 | 113.87246 | 32124 ft | 450 kts | 321° |
| 2026-04-22 11:24 | 34.55028 | 113.83778 | 32124 ft | 457 kts | 328° |
| 2026-04-22 11:25 | 34.61034 | 113.81170 | 32124 ft | 466 kts | 334° |
| 2026-04-22 11:25 | 34.67284 | 113.79111 | 32117 ft | 466 kts | 335° |
| 2026-04-22 11:26 | 34.73547 | 113.77097 | 32110 ft | 467 kts | 336° |
| 2026-04-22 11:26 | 34.79853 | 113.75063 | 32118 ft | 464 kts | 335° |
| 2026-04-22 11:27 | 34.86095 | 113.72971 | 32115 ft | 466 kts | 333° |
| 2026-04-22 11:27 | 34.92125 | 113.70441 | 32117 ft | 457 kts | 330° |
| 2026-04-22 11:28 | 34.98140 | 113.67779 | 32123 ft | 462 kts | 329° |
| 2026-04-22 11:28 | 35.04114 | 113.65142 | 32125 ft | 457 kts | 329° |
| 2026-04-22 11:29 | 35.10100 | 113.62486 | 32121 ft | 455 kts | 329° |
| 2026-04-22 11:29 | 35.16039 | 113.59860 | 32120 ft | 456 kts | 329° |
| 2026-04-22 11:30 | 35.21974 | 113.57227 | 32128 ft | 456 kts | 329° |
| 2026-04-22 11:30 | 35.27919 | 113.54591 | 32118 ft | 455 kts | 329° |
| 2026-04-22 11:31 | 35.33874 | 113.51936 | 32125 ft | 456 kts | 328° |
| 2026-04-22 11:31 | 35.39856 | 113.49271 | 32143 ft | 456 kts | 329° |
| 2026-04-22 11:32 | 35.45777 | 113.46638 | 32136 ft | 453 kts | 329° |
| 2026-04-22 11:32 | 35.51689 | 113.44016 | 32167 ft | 455 kts | 329° |
| 2026-04-22 11:33 | 35.57626 | 113.41388 | 32176 ft | 457 kts | 329° |
| 2026-04-22 11:33 | 35.63598 | 113.38735 | 32160 ft | 454 kts | 329° |
| 2026-04-22 11:34 | 35.69532 | 113.36091 | 32175 ft | 454 kts | 329° |
| 2026-04-22 11:34 | 35.75481 | 113.33429 | 32177 ft | 456 kts | 328° |
| 2026-04-22 11:35 | 35.81465 | 113.30753 | 32182 ft | 455 kts | 328° |
| 2026-04-22 11:35 | 35.87417 | 113.28092 | 32158 ft | 456 kts | 328° |
| 2026-04-22 11:36 | 35.93382 | 113.25445 | 32178 ft | 454 kts | 328° |
| 2026-04-22 11:36 | 35.99292 | 113.22812 | 32167 ft | 454 kts | 328° |
| 2026-04-22 11:37 | 36.05214 | 113.20164 | 32170 ft | 455 kts | 329° |
| 2026-04-22 11:37 | 36.11198 | 113.17483 | 32134 ft | 457 kts | 329° |
| 2026-04-22 11:38 | 36.17162 | 113.14804 | 32162 ft | 456 kts | 329° |
| 2026-04-22 11:38 | 36.26246 | 113.11015 | 32148 ft | 467 kts | 334° |
| 2026-04-22 11:39 | 36.32554 | 113.08955 | 32148 ft | 467 kts | 335° |
| 2026-04-22 11:39 | 36.38820 | 113.06932 | 32155 ft | 468 kts | 335° |
| 2026-04-22 11:40 | 36.45150 | 113.04875 | 32151 ft | 468 kts | 335° |
| 2026-04-22 11:40 | 36.51414 | 113.02832 | 32150 ft | 469 kts | 335° |
| 2026-04-22 11:41 | 36.57750 | 113.00761 | 32151 ft | 468 kts | 335° |
| 2026-04-22 11:41 | 36.64032 | 112.98701 | 32154 ft | 470 kts | 335° |
| 2026-04-22 11:42 | 36.70369 | 112.96694 | 32102 ft | 475 kts | 340° |
| 2026-04-22 11:42 | 36.73718 | 112.96343 | 31780 ft | 486 kts | 352° |
| 2026-04-22 11:42 | 36.77100 | 112.96787 | 31128 ft | 497 kts | 4° |
| 2026-04-22 11:43 | 36.80441 | 112.98059 | 30387 ft | 507 kts | 17° |
| 2026-04-22 11:43 | 36.83533 | 113.00100 | 29605 ft | 514 kts | 30° |
| 2026-04-22 11:43 | 36.86354 | 113.02924 | 28772 ft | 518 kts | 42° |
| 2026-04-22 11:43 | 36.88674 | 113.06338 | 28003 ft | 519 kts | 54° |
| 2026-04-22 11:44 | 36.90419 | 113.10181 | 27247 ft | 517 kts | 65° |
| 2026-04-22 11:44 | 36.91571 | 113.14403 | 26435 ft | 515 kts | 77° |
| 2026-04-22 11:44 | 36.92062 | 113.18816 | 25585 ft | 512 kts | 88° |
| 2026-04-22 11:44 | 36.91871 | 113.23235 | 24694 ft | 508 kts | 99° |
| 2026-04-22 11:45 | 36.91150 | 113.27478 | 23760 ft | 506 kts | 105° |
| 2026-04-22 11:45 | 36.90237 | 113.31734 | 22807 ft | 505 kts | 106° |
| 2026-04-22 11:45 | 36.89296 | 113.35856 | 22160 ft | 497 kts | 107° |
| 2026-04-22 11:45 | 36.88209 | 113.39911 | 21588 ft | 486 kts | 114° |
| 2026-04-22 11:46 | 36.86545 | 113.43509 | 21471 ft | 481 kts | 127° |
| 2026-04-22 11:46 | 36.84158 | 113.46413 | 21227 ft | 476 kts | 147° |
| 2026-04-22 11:46 | 36.81235 | 113.48167 | 20982 ft | 469 kts | 164° |
| 2026-04-22 11:46 | 36.78063 | 113.48880 | 20722 ft | 460 kts | 180° |
| 2026-04-22 11:47 | 36.74924 | 113.48439 | 20477 ft | 452 kts | 197° |
| 2026-04-22 11:47 | 36.72045 | 113.46901 | 20231 ft | 445 kts | 213° |
| 2026-04-22 11:47 | 36.69708 | 113.44492 | 19985 ft | 439 kts | 229° |
| 2026-04-22 11:47 | 36.67989 | 113.41357 | 19738 ft | 434 kts | 245° |
| 2026-04-22 11:48 | 36.67047 | 113.37856 | 19497 ft | 430 kts | 260° |
| 2026-04-22 11:48 | 36.66889 | 113.34187 | 19246 ft | 428 kts | 275° |
| 2026-04-22 11:48 | 36.67530 | 113.30559 | 18991 ft | 427 kts | 290° |
| 2026-04-22 11:48 | 36.68893 | 113.27340 | 18749 ft | 427 kts | 304° |
| 2026-04-22 11:49 | 36.70896 | 113.24618 | 18506 ft | 427 kts | 316° |
| 2026-04-22 11:49 | 36.73095 | 113.22113 | 18253 ft | 425 kts | 317° |
| 2026-04-22 11:49 | 36.75265 | 113.19654 | 18006 ft | 424 kts | 317° |
| 2026-04-22 11:49 | 36.77439 | 113.17190 | 17763 ft | 423 kts | 317° |
| 2026-04-22 11:50 | 36.79617 | 113.14714 | 17517 ft | 422 kts | 317° |
| 2026-04-22 11:50 | 36.81770 | 113.12257 | 17269 ft | 420 kts | 317° |
| 2026-04-22 11:50 | 36.83908 | 113.09813 | 17019 ft | 419 kts | 317° |
| 2026-04-22 11:50 | 36.86061 | 113.07347 | 16771 ft | 418 kts | 317° |
| 2026-04-22 11:51 | 36.88176 | 113.04923 | 16520 ft | 416 kts | 317° |
| 2026-04-22 11:51 | 36.90311 | 113.02471 | 16267 ft | 415 kts | 317° |
| 2026-04-22 11:51 | 36.92446 | 113.00015 | 16017 ft | 414 kts | 317° |
| 2026-04-22 11:51 | 36.94539 | 112.97605 | 15777 ft | 412 kts | 317° |
| 2026-04-22 11:52 | 36.96658 | 112.95164 | 15534 ft | 410 kts | 317° |
| 2026-04-22 11:52 | 36.98731 | 112.92775 | 15287 ft | 409 kts | 317° |
| 2026-04-22 11:52 | 37.00823 | 112.90364 | 15038 ft | 407 kts | 317° |
| 2026-04-22 11:52 | 37.02963 | 112.88029 | 14789 ft | 405 kts | 322° |
| 2026-04-22 11:53 | 37.05289 | 112.86078 | 14541 ft | 404 kts | 329° |
| 2026-04-22 11:53 | 37.07791 | 112.84534 | 14295 ft | 403 kts | 337° |
| 2026-04-22 11:53 | 37.10441 | 112.83407 | 14052 ft | 402 kts | 343° |
| 2026-04-22 11:53 | 37.13136 | 112.82497 | 13804 ft | 401 kts | 345° |
| 2026-04-22 11:54 | 37.15842 | 112.81626 | 13552 ft | 400 kts | 345° |
| 2026-04-22 11:54 | 37.18540 | 112.80760 | 13308 ft | 400 kts | 345° |
| 2026-04-22 11:54 | 37.21227 | 112.79890 | 13060 ft | 399 kts | 345° |
| 2026-04-22 11:54 | 37.23889 | 112.78908 | 12803 ft | 397 kts | 340° |
| 2026-04-22 11:55 | 37.26397 | 112.77484 | 12549 ft | 396 kts | 332° |
| 2026-04-22 11:55 | 37.28701 | 112.75638 | 12300 ft | 394 kts | 324° |
| 2026-04-22 11:55 | 37.30794 | 112.73412 | 12054 ft | 393 kts | 318° |
| 2026-04-22 11:55 | 37.32780 | 112.71062 | 11863 ft | 393 kts | 316° |
| 2026-04-22 11:56 | 37.34743 | 112.68701 | 11849 ft | 393 kts | 317° |
| 2026-04-22 11:56 | 37.36704 | 112.66355 | 11836 ft | 379 kts | 317° |
| 2026-04-22 11:56 | 37.38563 | 112.64141 | 11829 ft | 358 kts | 317° |
| 2026-04-22 11:56 | 37.40320 | 112.62050 | 11822 ft | 339 kts | 317° |
| 2026-04-22 11:57 | 37.41998 | 112.60053 | 11814 ft | 320 kts | 316° |
| 2026-04-22 11:57 | 37.43568 | 112.58184 | 11808 ft | 302 kts | 316° |
| 2026-04-22 11:57 | 37.45044 | 112.56425 | 11811 ft | 290 kts | 316° |
| 2026-04-22 11:57 | 37.46495 | 112.54694 | 11751 ft | 284 kts | 316° |
| 2026-04-22 11:58 | 37.47926 | 112.52988 | 11456 ft | 279 kts | 316° |
| 2026-04-22 11:58 | 37.49323 | 112.51322 | 11171 ft | 274 kts | 317° |
| 2026-04-22 11:58 | 37.50694 | 112.49686 | 10894 ft | 269 kts | 317° |
| 2026-04-22 11:58 | 37.52036 | 112.48083 | 10633 ft | 264 kts | 317° |
| 2026-04-22 11:59 | 37.53341 | 112.46527 | 10380 ft | 259 kts | 316° |
| 2026-04-22 11:59 | 37.54631 | 112.44986 | 10123 ft | 253 kts | 316° |
| 2026-04-22 11:59 | 37.56033 | 112.43669 | 9909 ft | 246 kts | 339° |
| 2026-04-22 11:59 | 37.57693 | 112.43523 | 9785 ft | 246 kts | 13° |
| 2026-04-22 12:00 | 37.59228 | 112.44516 | 9671 ft | 251 kts | 41° |
| 2026-04-22 12:00 | 37.60197 | 112.46326 | 9549 ft | 255 kts | 71° |
| 2026-04-22 12:00 | 37.60339 | 112.48531 | 9419 ft | 256 kts | 102° |
| 2026-04-22 12:00 | 37.59581 | 112.50535 | 9288 ft | 255 kts | 133° |
| 2026-04-22 12:01 | 37.58294 | 112.52054 | 9200 ft | 254 kts | 140° |
| 2026-04-22 12:01 | 37.56971 | 112.53531 | 9071 ft | 254 kts | 140° |
| 2026-04-22 12:01 | 37.55655 | 112.55028 | 8948 ft | 253 kts | 139° |
| 2026-04-22 12:01 | 37.54359 | 112.56527 | 8824 ft | 252 kts | 139° |
| 2026-04-22 12:02 | 37.52931 | 112.57761 | 8675 ft | 248 kts | 165° |
| 2026-04-22 12:02 | 37.51253 | 112.57886 | 8551 ft | 243 kts | 196° |
| 2026-04-22 12:02 | 37.49767 | 112.56941 | 8439 ft | 240 kts | 224° |
| 2026-04-22 12:02 | 37.48844 | 112.55262 | 8320 ft | 236 kts | 251° |
| 2026-04-22 12:03 | 37.48663 | 112.53234 | 8201 ft | 236 kts | 278° |
| 2026-04-22 12:03 | 37.49274 | 112.51321 | 8074 ft | 238 kts | 306° |
| 2026-04-22 12:03 | 37.50440 | 112.49843 | 7972 ft | 239 kts | 316° |
| 2026-04-22 12:03 | 37.51670 | 112.48427 | 7970 ft | 238 kts | 316° |
| 2026-04-22 12:04 | 37.52886 | 112.47017 | 7965 ft | 238 kts | 316° |
| 2026-04-22 12:04 | 37.54098 | 112.45599 | 7964 ft | 239 kts | 315° |
| 2026-04-22 12:04 | 37.55328 | 112.44202 | 7959 ft | 239 kts | 322° |
| 2026-04-22 12:04 | 37.56882 | 112.43477 | 7940 ft | 244 kts | 357° |
| 2026-04-22 12:05 | 37.58540 | 112.43941 | 7957 ft | 248 kts | 27° |
| 2026-04-22 12:05 | 37.59827 | 112.45380 | 7958 ft | 252 kts | 57° |
| 2026-04-22 12:05 | 37.60396 | 112.47449 | 7953 ft | 253 kts | 88° |
| 2026-04-22 12:05 | 37.60085 | 112.49575 | 7944 ft | 250 kts | 119° |
| 2026-04-22 12:06 | 37.59001 | 112.51268 | 7968 ft | 247 kts | 140° |
| 2026-04-22 12:06 | 37.57662 | 112.52563 | 7946 ft | 245 kts | 158° |
| 2026-04-22 12:06 | 37.56018 | 112.52830 | 7927 ft | 239 kts | 196° |
| 2026-04-22 12:06 | 37.54523 | 112.51935 | 7949 ft | 237 kts | 222° |
| 2026-04-22 12:07 | 37.53515 | 112.50328 | 7951 ft | 234 kts | 247° |
| 2026-04-22 12:07 | 37.53184 | 112.48362 | 7954 ft | 235 kts | 273° |
| 2026-04-22 12:07 | 37.53602 | 112.46393 | 7957 ft | 236 kts | 300° |
| 2026-04-22 12:07 | 37.54681 | 112.44818 | 7970 ft | 238 kts | 316° |
| 2026-04-22 12:08 | 37.55964 | 112.43421 | 7986 ft | 254 kts | 320° |
| 2026-04-22 12:08 | 37.57391 | 112.42040 | 7977 ft | 262 kts | 323° |
| 2026-04-22 12:08 | 37.58909 | 112.40749 | 7969 ft | 264 kts | 326° |
| 2026-04-22 12:08 | 37.60481 | 112.39580 | 7969 ft | 265 kts | 330° |
| 2026-04-22 12:09 | 37.62134 | 112.38522 | 7966 ft | 266 kts | 333° |
| 2026-04-22 12:09 | 37.63879 | 112.37576 | 7969 ft | 278 kts | 337° |
| 2026-04-22 12:09 | 37.65733 | 112.36737 | 7966 ft | 280 kts | 339° |
| 2026-04-22 12:09 | 37.67546 | 112.35887 | 7961 ft | 279 kts | 336° |
| 2026-04-22 12:10 | 37.69308 | 112.34907 | 7964 ft | 278 kts | 332° |
| 2026-04-22 12:10 | 37.71036 | 112.33784 | 7968 ft | 278 kts | 330° |
| 2026-04-22 12:10 | 37.72735 | 112.32639 | 7971 ft | 277 kts | 330° |
| 2026-04-22 12:10 | 37.74445 | 112.31472 | 7976 ft | 276 kts | 330° |
| 2026-04-22 12:11 | 37.76134 | 112.30320 | 7979 ft | 276 kts | 330° |
| 2026-04-22 12:11 | 37.77828 | 112.29165 | 7978 ft | 275 kts | 330° |
| 2026-04-22 12:11 | 37.79504 | 112.28024 | 7977 ft | 274 kts | 330° |
| 2026-04-22 12:11 | 37.81163 | 112.26898 | 7972 ft | 261 kts | 330° |
| 2026-04-22 12:12 | 37.82709 | 112.25846 | 7970 ft | 245 kts | 330° |
| 2026-04-22 12:12 | 37.84173 | 112.24953 | 7943 ft | 224 kts | 344° |
| 2026-04-22 12:12 | 37.85706 | 112.24982 | 7952 ft | 224 kts | 17° |
| 2026-04-22 12:12 | 37.87034 | 112.26038 | 7858 ft | 229 kts | 47° |
| 2026-04-22 12:13 | 37.87862 | 112.27749 | 7741 ft | 232 kts | 60° |
| 2026-04-22 12:13 | 37.88596 | 112.29582 | 7598 ft | 232 kts | 60° |
| 2026-04-22 12:13 | 37.89336 | 112.31408 | 7426 ft | 233 kts | 60° |
| 2026-04-22 12:13 | 37.90069 | 112.33219 | 7183 ft | 234 kts | 64° |
| 2026-04-22 12:14 | 37.90343 | 112.35228 | 6854 ft | 236 kts | 101° |
| 2026-04-22 12:14 | 37.89685 | 112.37096 | 6603 ft | 233 kts | 126° |
| 2026-04-22 12:14 | 37.88705 | 112.38731 | 6379 ft | 233 kts | 130° |
| 2026-04-22 12:14 | 37.87687 | 112.40328 | 6165 ft | 233 kts | 130° |
| 2026-04-22 12:15 | 37.86713 | 112.41879 | 6187 ft | 213 kts | 130° |
| 2026-04-22 12:15 | 37.85837 | 112.43312 | 6096 ft | 198 kts | 130° |
| 2026-04-22 12:15 | 37.85026 | 112.44657 | 5886 ft | 190 kts | 129° |
| 2026-04-22 12:15 | 37.84243 | 112.45963 | 5638 ft | 184 kts | 129° |
| 2026-04-22 12:16 | 37.83486 | 112.47232 | 5389 ft | 177 kts | 129° |
| 2026-04-22 12:16 | 37.82755 | 112.48454 | 5145 ft | 170 kts | 129° |
| 2026-04-22 12:16 | 37.82058 | 112.49624 | 4938 ft | 162 kts | 129° |
| 2026-04-22 12:16 | 37.81406 | 112.50715 | 4750 ft | 151 kts | 129° |
| 2026-04-22 12:17 | 37.80774 | 112.51770 | 4555 ft | 149 kts | 129° |
| 2026-04-22 12:17 | 37.80157 | 112.52800 | 4377 ft | 148 kts | 129° |
| 2026-04-22 12:17 | 37.79532 | 112.53843 | 4189 ft | 147 kts | 129° |
| 2026-04-22 12:17 | 37.78916 | 112.54871 | 4001 ft | 146 kts | 128° |
| 2026-04-22 12:18 | 37.78300 | 112.55901 | 3809 ft | 145 kts | 128° |
| 2026-04-22 12:18 | 37.77697 | 112.56906 | 3618 ft | 145 kts | 128° |
| 2026-04-22 12:18 | 37.77089 | 112.57922 | 3429 ft | 144 kts | 128° |
| 2026-04-22 12:18 | 37.76486 | 112.58929 | 3242 ft | 143 kts | 127° |
| 2026-04-22 12:19 | 37.75888 | 112.59927 | 3059 ft | 143 kts | 127° |
| 2026-04-22 12:19 | 37.75290 | 112.60928 | 2909 ft | 142 kts | 127° |
| 2026-04-22 12:19 | 37.74686 | 112.61931 | 2696 ft | 142 kts | 128° |
| 2026-04-22 12:19 | 37.74094 | 112.62909 | 2597 ft | 134 kts | 127° |
| 2026-04-22 12:20 | 37.73608 | 112.63724 | 2590 ft | 94 kts | 127° |
| 2026-04-22 12:20 | 37.73303 | 112.64239 | 2590 ft | 58 kts | 117° |
| 2026-04-22 12:20 | 37.73237 | 112.64574 | 2590 ft | 16 kts | 69° |
| 2026-04-22 12:20 | 37.73329 | 112.64537 | 2590 ft | 18 kts | 305° |
| 2026-04-22 12:21 | 37.73407 | 112.64409 | 2590 ft | 17 kts | 307° |
| 2026-04-22 12:21 | 37.73481 | 112.64285 | 2590 ft | 17 kts | 306° |
| 2026-04-22 12:21 | 37.73554 | 112.64163 | 2590 ft | 17 kts | 306° |
| 2026-04-22 12:21 | 37.73626 | 112.64044 | 2590 ft | 17 kts | 307° |
| 2026-04-22 12:22 | 37.73698 | 112.63926 | 2589 ft | 16 kts | 307° |
| 2026-04-22 12:22 | 37.73768 | 112.63808 | 2589 ft | 16 kts | 306° |
| 2026-04-22 12:22 | 37.73840 | 112.63689 | 2589 ft | 16 kts | 307° |
| 2026-04-22 12:22 | 37.73911 | 112.63571 | 2589 ft | 16 kts | 308° |
| 2026-04-22 12:23 | 37.73987 | 112.63448 | 2589 ft | 22 kts | 307° |
| 2026-04-22 12:23 | 37.74085 | 112.63287 | 2589 ft | 22 kts | 307° |
| 2026-04-22 12:23 | 37.74177 | 112.63133 | 2589 ft | 21 kts | 306° |
| 2026-04-22 12:23 | 37.74265 | 112.62986 | 2589 ft | 19 kts | 307° |
| 2026-04-22 12:24 | 37.74363 | 112.62887 | 2589 ft | 18 kts | 6° |
| 2026-04-22 12:24 | 37.74450 | 112.62988 | 2589 ft | 17 kts | 50° |
| 2026-04-22 12:24 | 37.74553 | 112.63049 | 2589 ft | 16 kts | 345° |
| 2026-04-22 12:24 | 37.74648 | 112.62962 | 2589 ft | 16 kts | 323° |
| 2026-04-22 12:25 | 37.74757 | 112.62889 | 2589 ft | 18 kts | 336° |
| 2026-04-22 12:25 | 37.74876 | 112.62825 | 2589 ft | 18 kts | 336° |
| 2026-04-22 12:25 | 37.74986 | 112.62814 | 2589 ft | 14 kts | 33° |
| 2026-04-22 12:25 | 37.75068 | 112.62888 | 2589 ft | 14 kts | 37° |
| 2026-04-22 12:26 | 37.75163 | 112.62892 | 2589 ft | 14 kts | 352° |
| 2026-04-22 12:26 | 37.75224 | 112.62905 | 2589 ft | 5 kts | 36° |
| 2026-04-22 12:26 | 37.75251 | 112.62930 | 2589 ft | 2 kts | 38° |
| 2026-04-22 12:26 | 37.75256 | 112.62936 | 2589 ft | 0 kts | 38° |